Airfield :







YOU CAN JOIN US ON...

 
LOGIN :

Register | Disclaimer

   EN    FR    IT 

 









Legend :    VFR   Marginal VFR   IFR   Intensive IFR   Very Intensive IFR
Visi :
Ceiling :
>= 8 km
>= 3000ft
5 to 8 km
1000 to 3000 ft
1500m to 5 km
500 to 1000 ft
800 to 1500m
200 to 500 ft
< 800m
< 200 ft
Symbols :   Thunderstorms  Fog  Heavy snow  Heavy precipitations  Wind > 20 kt






- Airport Elevation : 20 ft
- IATA code : BOS


KBOS - General Edward Lawrence Logan International

CURRENT METAR :
  • 220254Z 22011G18KT 10SM FEW021 SCT250 25/20 A2964 RMK AO2 SLP036 T02500200 53011

EXPIRED METARs :
  • 220154Z 20013G19KT 10SM SCT021 SCT250 24/21 A2962 RMK AO2 SLP030 T02440206
  • 220054Z 22019G27KT 10SM FEW013 OVC020 26/21 A2962 RMK AO2 PK WND 21027/0050 SLP028 T02560206
  • 220029Z 20014KT 10SM FEW018 BKN027 BKN250 25/21 A2961 RMK A02 T02500206

TAF KBOS
Valid from the 22 at 00:00 until the 23 at 06:00 UTC


212346Z 2200/2306 20012G19KT P6SM BKN030
FM220100 19010KT P6SM SCT012 BKN020
FM220400 20007KT P6SM SCT007 BKN012
FM220600 20007KT P6SM OVC007
FM221100 24007KT P6SM SCT020 BKN150
FM221800 28010KT P6SM VCSH BKN040 BKN200
KZBW FIR / North America



MET'MAP, your aeronautical weather chart ! - Copyright ORBIFLY December 2007 - Disclaimer

ORBIFLY MET'MAP TEAM :

Programming & Development : Alexandra Zaïnal
Concept & original design : Baudouin d'Aumeries
Assistance for programming : Marc-Olivier Méhu
Technical & hardware support : Manuel Goepfert

Contact : metmap@orbifly.com




SOURCES & CREDITS :

   NOAA